This is the latest recevied weather packets stored in our database for station/object SP2NBH-2. If no packets are shown the sender has not sent any weather packets the latest 10 day(s).
| Time | Temp. | Humidity | Pressure | Rain* | Wind** | Luminosity | Snow |
|---|---|---|---|---|---|---|---|
| 1777664139 | 10.56° C | 55% | 1025.9 hPa | - | - | - | - |
| 1777664107 | 10.56° C | 55% | 1025.9 hPa | - | - | - | - |
| 1777663239 | 10.56° C | 55% | 1025.9 hPa | - | - | - | - |
| 1777663207 | 10.56° C | 55% | 1025.9 hPa | - | - | - | - |
| 1777662342 | 11.11° C | 54% | 1025.9 hPa | - | - | - | - |
| 1777662307 | 11.11° C | 54% | 1025.9 hPa | - | - | - | - |
| 1777661406 | 11.67° C | 55% | 1025.9 hPa | - | - | - | - |
| 1777660505 | 12.22° C | 52% | 1025.8 hPa | - | - | - | - |
| 1777659605 | 12.78° C | 55% | 1025.6 hPa | - | - | - | - |
| 1777658737 | 13.89° C | 50% | 1025.4 hPa | - | - | - | - |
| 1777658705 | 13.89° C | 50% | 1025.4 hPa | - | - | - | - |
| 1777657805 | 15° C | 46% | 1025.4 hPa | - | - | - | - |
| 1777656905 | 16.11° C | 41% | 1025.4 hPa | - | - | - | - |
| 1777656036 | 17.22° C | 40% | 1025.4 hPa | - | - | - | - |
| 1777656004 | 17.22° C | 40% | 1025.4 hPa | - | - | - | - |
| 1777655104 | 18.33° C | 36% | 1025.4 hPa | - | - | - | - |
| 1777654240 | 18.89° C | 34% | 1025.4 hPa | - | - | - | - |
| 1777654204 | 18.89° C | 34% | 1025.4 hPa | - | - | - | - |
| 1777653304 | 20° C | 32% | 1025.5 hPa | - | - | - | - |
| 1777652404 | 29.44° C | 21% | 1025.6 hPa | - | - | - | - |
| 1777650697 | 31.67° C | 19% | 1025.8 hPa | - | - | - | - |
| 1777649797 | 31.11° C | 20% | 1025.9 hPa | - | - | - | - |
| 1777648930 | 32.22° C | 19% | 1025.9 hPa | - | - | - | - |
| 1777648897 | 32.22° C | 19% | 1025.9 hPa | - | - | - | - |
| 1777647996 | 28.89° C | 22% | 1026.2 hPa | - | - | - | - |
* Rain since midnight (hover to see other rain measurements)
** Current wind speed in m/s (hover to see current wind gust speed)